Time;durP1;ratioP1;P1;durP2;ratioP2;P2;SDS_P1;SDS_P2;PMS_P1;PMS_P2;Temp;Humidity;BMP_temperature;BMP_pressure;BME280_temperature;BME280_humidity;BME280_pressure;Samples;Min_cycle;Max_cycle;Signal;HPM_P1;HPM_P2
2022/11/01 00:00:16;;;;;;;16.33;5.38;;;;;;;-143.48;76.80;77984.41;5012403;28;20057;-73
2022/11/01 00:02:41;;;;;;;13.52;5.90;;;;;;;-143.48;77.00;77988.38;5013075;28;20030;-73
2022/11/01 00:05:07;;;;;;;14.98;6.03;;;;;;;-143.48;77.01;77986.41;5014328;28;20037;-73
2022/11/01 00:07:32;;;;;;;13.43;5.97;;;;;;;-143.48;77.33;77980.44;5029313;28;20105;-73
2022/11/01 00:09:58;;;;;;;13.43;6.35;;;;;;;-143.48;77.64;77984.41;5029357;28;20069;-73
2022/11/01 00:12:23;;;;;;;15.23;5.85;;;;;;;-143.48;77.18;77974.50;5012825;28;20061;-73
2022/11/01 00:14:48;;;;;;;13.40;5.95;;;;;;;-143.48;77.69;77986.41;5029133;28;20492;-73
2022/11/01 00:17:14;;;;;;;15.02;5.93;;;;;;;-143.48;77.95;77972.50;5028937;28;20029;-74
2022/11/01 00:19:39;;;;;;;15.15;6.07;;;;;;;-143.48;78.04;77974.50;5013910;28;20034;-73
2022/11/01 00:22:04;;;;;;;19.02;5.97;;;;;;;-143.48;77.35;77960.63;5013700;28;20435;-73
2022/11/01 00:24:30;;;;;;;15.20;5.70;;;;;;;-143.48;77.70;77966.56;5014130;28;20104;-73
2022/11/01 00:26:56;;;;;;;20.15;6.40;;;;;;;-143.48;77.77;77962.59;5013964;28;20481;-73
2022/11/01 00:29:21;;;;;;;18.90;5.60;;;;;;;-143.48;77.58;77950.69;5013731;28;20388;-73
2022/11/01 00:31:47;;;;;;;15.10;5.93;;;;;;;-143.48;78.41;77962.59;5013624;28;20026;-73
2022/11/01 00:34:12;;;;;;;17.25;5.82;;;;;;;-143.48;78.77;77956.66;5013481;28;20362;-73
2022/11/01 00:36:38;;;;;;;18.60;5.70;;;;;;;-143.48;79.63;77976.47;5013649;28;20120;-73
2022/11/01 00:39:04;;;;;;;16.95;6.18;;;;;;;-143.48;80.11;77976.47;5012928;28;20370;-73
2022/11/01 00:41:29;;;;;;;17.52;6.30;;;;;;;-143.48;80.34;77972.50;5012206;28;20121;-73
2022/11/01 00:43:55;;;;;;;14.23;5.97;;;;;;;-143.48;80.44;77962.59;5012647;28;20092;-73
2022/11/01 00:46:20;;;;;;;19.73;6.30;;;;;;;-143.48;80.77;77964.56;5013530;28;20033;-73
2022/11/01 00:48:45;;;;;;;17.55;5.90;;;;;;;-143.48;80.41;77952.69;5012343;28;20042;-73
2022/11/01 00:51:11;;;;;;;21.77;6.47;;;;;;;-143.48;80.53;77948.72;5012246;28;20041;-73
2022/11/01 00:53:36;;;;;;;20.88;6.15;;;;;;;-143.48;81.16;77948.72;5012300;28;20476;-73
2022/11/01 00:56:06;;;;;;;14.73;6.15;;;;;;;-143.48;81.02;77946.72;5013491;28;20029;-73
2022/11/01 00:58:31;;;;;;;19.55;6.55;;;;;;;-143.48;81.63;77946.72;5013313;28;20026;-73
2022/11/01 01:00:57;;;;;;;16.90;6.85;;;;;;;-143.48;81.47;77942.78;5011924;28;20091;-73
2022/11/01 01:03:22;;;;;;;23.85;6.80;;;;;;;-143.48;81.70;77940.78;5013621;28;20107;-73
2022/11/01 01:05:50;;;;;;;18.42;6.18;;;;;;;-143.48;81.43;77942.78;5012374;28;20044;-73
2022/11/01 01:08:15;;;;;;;15.07;6.38;;;;;;;-143.48;81.71;77934.84;5013660;28;20026;-73
2022/11/01 01:10:41;;;;;;;16.58;6.22;;;;;;;-143.48;81.71;77932.84;5012171;28;20030;-73
2022/11/01 01:13:06;;;;;;;17.58;6.35;;;;;;;-143.48;81.77;77934.84;5013291;28;20025;-73
2022/11/01 01:15:31;;;;;;;14.95;6.50;;;;;;;-143.48;81.48;77915.00;5011933;28;20112;-73
2022/11/01 01:17:57;;;;;;;17.38;6.20;;;;;;;-143.48;81.52;77930.88;5013240;28;20118;-73
2022/11/01 01:20:23;;;;;;;12.70;6.35;;;;;;;-143.48;81.51;77917.00;5013329;28;20473;-73
2022/11/01 01:22:48;;;;;;;18.83;7.18;;;;;;;-143.48;81.68;77913.03;5012062;28;20029;-73
2022/11/01 01:25:14;;;;;;;15.95;6.50;;;;;;;-143.48;81.83;77913.03;5013607;28;20499;-73
2022/11/01 01:27:39;;;;;;;14.98;5.70;;;;;;;-143.48;81.81;77922.94;5015884;28;20037;-73
2022/11/01 01:30:06;;;;;;;16.17;6.63;;;;;;;-143.48;81.77;77917.00;5015908;28;20362;-73
2022/11/01 01:32:32;;;;;;;16.05;5.93;;;;;;;-143.48;81.30;77907.06;5015583;28;20072;-73
2022/11/01 01:34:58;;;;;;;21.45;6.15;;;;;;;-143.48;81.34;77903.09;5015444;28;20468;-75
2022/11/01 01:37:23;;;;;;;13.00;5.93;;;;;;;-143.48;81.32;77897.16;5017065;28;20148;-72
2022/11/01 01:39:48;;;;;;;15.80;6.40;;;;;;;-143.48;81.30;77901.13;5016958;28;20025;-73
2022/11/01 01:42:16;;;;;;;14.63;5.88;;;;;;;-143.48;80.94;77889.22;5015851;28;20444;-73
2022/11/01 01:44:45;;;;;;;13.40;5.90;;;;;;;-143.48;81.46;77903.09;5015563;28;20076;-73
2022/11/01 01:47:18;;;;;;;18.40;5.78;;;;;;;-143.48;81.63;77893.19;5015490;28;20096;-73
2022/11/01 01:49:45;;;;;;;13.40;5.40;;;;;;;-143.48;81.31;77893.19;5015116;28;20042;-73
2022/11/01 01:52:12;;;;;;;16.90;6.00;;;;;;;-143.48;81.43;77893.19;5015419;28;20026;-73
2022/11/01 01:54:37;;;;;;;15.75;5.82;;;;;;;-143.48;81.31;77891.22;5016588;28;20030;-73
2022/11/01 01:57:04;;;;;;;13.38;5.32;;;;;;;-143.48;81.22;77887.25;5016385;28;20545;-74
2022/11/01 01:59:31;;;;;;;11.55;5.65;;;;;;;-143.48;81.13;77877.31;5016416;28;20032;-73
2022/11/01 02:01:57;;;;;;;16.60;5.85;;;;;;;-143.48;80.92;77869.41;5016429;28;20061;-73
2022/11/01 02:04:36;;;;;;;15.45;5.40;;;;;;;-143.48;81.60;77871.38;5031743;28;20025;-73
2022/11/01 02:07:01;;;;;;;19.17;5.53;;;;;;;-143.48;81.56;77863.44;5015615;28;20018;-73
2022/11/01 02:09:26;;;;;;;17.58;5.65;;;;;;;-143.48;81.54;77861.47;5031573;28;20503;-73
2022/11/01 02:11:51;;;;;;;13.90;5.13;;;;;;;-143.48;81.16;77849.56;5020688;28;20033;-73
2022/11/01 02:14:20;;;;;;;12.07;5.07;;;;;;;-143.48;81.01;77847.59;5015273;28;20025;-73
2022/11/01 02:16:53;;;;;;;11.60;5.13;;;;;;;-143.48;81.25;77843.63;5016620;28;20033;-74
2022/11/01 02:19:37;;;;;;;17.75;5.00;;;;;;;-143.48;81.21;77837.66;5016875;28;20457;-75
2022/11/01 02:22:45;;;;;;;16.08;5.00;;;;;;;-143.48;80.94;77823.78;5015020;28;20112;-73
2022/11/01 02:25:48;;;;;;;15.85;4.97;;;;;;;-143.48;80.97;77819.81;5006298;28;20040;-73
2022/11/01 02:28:31;;;;;;;18.07;5.30;;;;;;;-143.48;80.92;77811.88;5015204;28;20021;-72
2022/11/01 02:31:17;;;;;;;12.68;5.05;;;;;;;-143.48;80.72;77805.94;5016104;28;20272;-73
2022/11/01 02:33:56;;;;;;;14.10;5.03;;;;;;;-143.48;80.86;77805.94;5016082;28;20377;-74
2022/11/01 02:36:32;;;;;;;12.52;5.15;;;;;;;-143.48;80.76;77794.03;5015762;28;20030;-74
2022/11/01 02:39:03;;;;;;;12.18;5.00;;;;;;;-143.48;81.26;77798.00;5030614;28;20026;-74
2022/11/01 02:41:47;;;;;;;13.65;5.10;;;;;;;-143.48;81.29;77796.03;5016191;28;20029;-74
2022/11/01 02:44:20;;;;;;;10.40;4.95;;;;;;;-143.48;81.23;77792.06;5014885;28;20384;-74
2022/11/01 02:47:00;;;;;;;11.63;4.53;;;;;;;-143.48;80.80;77784.13;5014724;28;20014;-74
2022/11/01 02:49:40;;;;;;;11.90;4.82;;;;;;;-143.48;80.41;77774.22;5015746;28;20401;-74
2022/11/01 02:52:08;;;;;;;15.05;5.05;;;;;;;-143.48;80.37;77764.31;5031115;28;20030;-73
2022/11/01 02:54:39;;;;;;;12.38;5.35;;;;;;;-143.48;80.63;77766.28;5014569;28;20025;-74
2022/11/01 02:57:27;;;;;;;14.18;4.90;;;;;;;-143.48;80.46;77762.31;5015799;28;20076;-74
2022/11/01 03:00:00;;;;;;;8.18;4.60;;;;;;;-143.48;80.48;77756.38;5008417;28;20044;-73
2022/11/01 03:02:38;;;;;;;13.52;4.93;;;;;;;-143.48;80.29;77746.44;5015555;28;20076;-74
2022/11/01 03:05:31;;;;;;;11.38;4.50;;;;;;;-143.48;79.40;77740.50;5015977;28;20026;-74
2022/11/01 03:08:03;;;;;;;15.75;4.50;;;;;;;-143.48;77.98;77720.69;5015358;28;20030;-74
2022/11/01 03:10:51;;;;;;;11.80;3.90;;;;;;;-143.48;77.98;77714.72;5015771;28;20496;-73
2022/11/01 03:13:17;;;;;;;9.63;4.38;;;;;;;-143.48;77.96;77718.69;5011614;28;20069;-74
2022/11/01 03:15:55;;;;;;;9.30;4.18;;;;;;;-143.48;77.79;77732.56;5015375;28;20123;-74
2022/11/01 03:18:31;;;;;;;11.35;4.38;;;;;;;-143.48;78.04;77728.59;5014109;28;20065;-74
2022/11/01 03:21:14;;;;;;;13.77;4.43;;;;;;;-143.48;77.93;77732.56;5015683;28;20029;-73
2022/11/01 03:23:45;;;;;;;13.43;3.95;;;;;;;-143.48;78.03;77742.50;5015366;28;20030;-74
2022/11/01 03:26:15;;;;;;;9.75;4.15;;;;;;;-143.48;76.85;77738.53;5015350;28;20373;-74
2022/11/01 03:28:45;;;;;;;12.20;4.00;;;;;;;-143.48;76.41;77742.50;5015376;28;20022;-73
2022/11/01 03:31:16;;;;;;;9.80;3.90;;;;;;;-143.48;76.51;77756.38;5013783;28;20022;-74
2022/11/01 03:33:47;;;;;;;7.22;3.78;;;;;;;-143.48;76.80;77764.31;5015020;28;20030;-75
2022/11/01 03:36:17;;;;;;;8.52;3.45;;;;;;;-143.48;76.58;77778.19;5013671;28;20034;-74
2022/11/01 03:38:48;;;;;;;8.48;3.65;;;;;;;-143.48;75.87;77784.13;5013593;28;20022;-74
2022/11/01 03:41:16;;;;;;;7.93;3.25;;;;;;;-143.48;75.77;77786.13;5014628;28;20026;-74
2022/11/01 03:43:42;;;;;;;8.95;2.90;;;;;;;-143.48;72.93;77813.88;5015190;28;20030;-74
2022/11/01 03:46:08;;;;;;;9.65;2.50;;;;;;;-143.48;69.44;77823.78;5014673;28;20026;-74
2022/11/01 03:48:37;;;;;;;4.90;1.50;;;;;;;-143.48;65.59;77833.69;5013037;28;20393;-77
2022/11/01 03:51:03;;;;;;;3.10;1.20;;;;;;;-143.48;65.49;77843.63;5014825;28;20053;-73
2022/11/01 03:53:28;;;;;;;5.70;1.40;;;;;;;-143.48;65.09;77869.41;5014623;28;20026;-75
2022/11/01 03:55:53;;;;;;;6.80;1.33;;;;;;;-143.48;65.30;77881.28;5013301;28;20022;-72
2022/11/01 03:58:18;;;;;;;3.63;1.10;;;;;;;-143.48;65.43;77893.19;5013795;28;20045;-74
2022/11/01 04:00:45;;;;;;;4.93;1.13;;;;;;;-143.48;65.74;77901.13;5029897;28;20116;-74
2022/11/01 04:03:11;;;;;;;4.63;1.15;;;;;;;-143.48;65.58;77913.03;5014890;28;20445;-73
2022/11/01 04:05:39;;;;;;;2.92;1.30;;;;;;;-143.48;66.01;77920.94;5014724;28;20465;-73
2022/11/01 04:08:05;;;;;;;4.38;1.10;;;;;;;-143.48;65.86;77932.84;5014602;28;20026;-73
2022/11/01 04:10:31;;;;;;;2.80;0.98;;;;;;;-143.48;65.79;77944.75;5014503;28;20489;-74
2022/11/01 04:12:57;;;;;;;4.00;1.20;;;;;;;-143.48;66.15;77960.63;5029332;28;20034;-74
2022/11/01 04:21:01;;;;;;;3.13;0.90;;;;;;;-143.48;64.99;77986.41;5014654;28;20067;-74
2022/11/01 04:23:27;;;;;;;3.17;1.23;;;;;;;-143.48;64.57;77986.41;5012978;28;20033;-74
2022/11/01 04:25:52;;;;;;;4.18;1.02;;;;;;;-143.48;64.54;78002.25;5012714;28;20022;-74
2022/11/01 04:28:17;;;;;;;4.22;1.17;;;;;;;-143.48;64.67;78016.13;5014255;28;20453;-73
2022/11/01 04:30:43;;;;;;;4.38;1.00;;;;;;;-143.48;64.73;78022.09;5012647;28;20083;-74
2022/11/01 04:33:08;;;;;;;7.15;1.30;;;;;;;-143.48;64.14;78018.13;5012724;28;20108;-73
2022/11/01 04:35:37;;;;;;;5.28;1.15;;;;;;;-143.48;64.61;78037.94;5013830;28;20033;-73
2022/11/01 04:38:04;;;;;;;4.90;0.90;;;;;;;-143.48;65.10;78053.81;5014371;28;20175;-73
2022/11/01 04:40:30;;;;;;;4.70;1.13;;;;;;;-143.48;65.49;78047.88;5013938;28;20021;-73
2022/11/01 04:42:55;;;;;;;5.05;1.25;;;;;;;-143.48;66.26;78057.78;5012930;28;20083;-73
2022/11/01 04:45:20;;;;;;;4.25;1.10;;;;;;;-143.48;67.18;78065.72;5028818;28;20026;-73
2022/11/01 04:47:52;;;;;;;4.10;1.17;;;;;;;-143.48;67.79;78077.63;5029247;28;20033;-73
2022/11/01 04:50:19;;;;;;;6.18;1.33;;;;;;;-143.48;67.68;78073.66;5012301;28;20136;-73
2022/11/01 04:52:45;;;;;;;5.45;1.10;;;;;;;-143.48;66.81;78077.63;5012786;28;20420;-73
2022/11/01 04:55:10;;;;;;;3.85;0.93;;;;;;;-143.48;66.61;78093.47;5012293;28;20049;-73
2022/11/01 04:57:40;;;;;;;5.35;1.70;;;;;;;-143.48;66.22;78091.50;5013963;28;20026;-73
2022/11/01 05:00:07;;;;;;;5.15;1.02;;;;;;;-143.48;65.68;78097.44;5013208;28;20471;-74
2022/11/01 05:02:32;;;;;;;5.90;1.15;;;;;;;-143.48;64.28;78095.47;5017964;28;20030;-74
2022/11/01 05:04:57;;;;;;;9.02;1.30;;;;;;;-143.48;63.06;78131.16;5017874;28;20060;-73
2022/11/01 05:07:22;;;;;;;4.90;1.15;;;;;;;-143.48;62.51;78125.22;5016641;28;20018;-72
2022/11/01 05:09:48;;;;;;;3.70;0.95;;;;;;;-143.48;62.65;78125.22;5016752;28;20108;-74
2022/11/01 05:12:13;;;;;;;7.43;1.60;;;;;;;-143.48;62.86;78125.22;5016538;28;20477;-74
2022/11/01 05:14:38;;;;;;;4.05;0.90;;;;;;;-143.48;64.01;78149.00;5016547;28;20034;-72
2022/11/01 05:17:04;;;;;;;6.90;1.23;;;;;;;-143.48;62.94;78152.97;5017809;28;20026;-75
2022/11/01 05:19:29;;;;;;;12.13;1.42;;;;;;;-143.48;62.51;78168.84;5017442;28;20018;-73
2022/11/01 05:21:54;;;;;;;12.50;1.67;;;;;;;-143.48;61.14;78154.94;5017761;28;20032;-72
2022/11/01 05:24:20;;;;;;;7.00;1.50;;;;;;;-143.48;60.59;78151.00;5017553;28;20056;-74
2022/11/01 05:26:45;;;;;;;9.57;1.50;;;;;;;-143.48;59.84;78158.91;5016277;28;20018;-73
2022/11/01 05:29:10;;;;;;;11.90;1.75;;;;;;;-143.48;60.30;78178.75;5016047;28;20036;-73
2022/11/01 05:31:36;;;;;;;9.00;1.52;;;;;;;-143.48;59.47;78178.75;5017336;28;20112;-73
2022/11/01 05:34:02;;;;;;;9.02;1.45;;;;;;;-143.48;59.41;78166.84;5017159;28;20088;-72
2022/11/01 05:36:28;;;;;;;11.52;1.33;;;;;;;-143.48;59.18;78180.72;5017027;28;20021;-73
2022/11/01 05:38:57;;;;;;;6.95;1.45;;;;;;;-143.48;59.28;78180.72;5016213;28;20029;-74
2022/11/01 05:41:22;;;;;;;6.50;1.27;;;;;;;-143.48;59.39;78180.72;5015769;28;20018;-72
2022/11/01 05:43:48;;;;;;;10.18;1.60;;;;;;;-143.48;58.99;78200.56;5017151;28;20029;-74
2022/11/01 05:46:13;;;;;;;9.73;1.50;;;;;;;-143.48;59.34;78202.56;5015900;28;20017;-72
2022/11/01 05:48:40;;;;;;;11.70;1.60;;;;;;;-143.48;59.33;78210.47;5017039;28;20053;-72
2022/11/01 05:51:11;;;;;;;16.17;1.33;;;;;;;-143.48;59.04;78202.56;5033150;28;20149;-74
2022/11/01 05:53:57;;;;;;;17.20;1.90;;;;;;;-143.48;58.56;78198.59;5018729;28;20104;-74
2022/11/01 05:56:23;;;;;;;11.48;1.40;;;;;;;-143.48;57.80;78198.59;5015751;28;20061;-73
2022/11/01 05:58:48;;;;;;;13.15;1.73;;;;;;;-143.48;57.70;78202.56;5015879;28;20061;-72
2022/11/01 06:01:15;;;;;;;11.25;1.50;;;;;;;-143.48;57.35;78212.47;5016768;28;20053;-72
2022/11/01 06:03:43;;;;;;;11.32;1.70;;;;;;;-143.48;56.81;78206.50;5032730;28;20369;-72
2022/11/01 06:06:11;;;;;;;11.68;1.95;;;;;;;-143.48;57.09;78222.38;5016850;28;20022;-77
2022/11/01 06:08:37;;;;;;;9.10;1.63;;;;;;;-143.48;56.94;78220.41;5016055;28;20037;-77
2022/11/01 06:11:05;;;;;;;11.45;2.05;;;;;;;-143.48;57.00;78228.31;4999175;28;20469;-78
2022/11/01 06:13:32;;;;;;;10.82;1.73;;;;;;;-143.48;56.53;78238.25;5016848;28;20026;-77
2022/11/01 06:16:02;;;;;;;12.80;1.80;;;;;;;-143.48;56.75;78226.34;5016406;28;20030;-76
2022/11/01 06:18:27;;;;;;;8.93;1.58;;;;;;;-143.48;56.86;78226.34;5014966;28;20025;-77
2022/11/01 06:20:52;;;;;;;9.07;1.30;;;;;;;-143.48;57.08;78232.28;5015192;28;20053;-76
2022/11/01 06:23:18;;;;;;;13.20;1.80;;;;;;;-143.48;57.19;78242.22;4999067;28;20037;-76
2022/11/01 06:25:44;;;;;;;7.82;1.60;;;;;;;-143.48;57.64;78238.25;5016262;28;20096;-76
2022/11/01 06:28:09;;;;;;;7.68;1.67;;;;;;;-143.48;57.76;78246.19;5016195;28;20033;-77
2022/11/01 06:30:37;;;;;;;10.60;1.63;;;;;;;-143.48;57.88;78250.16;5014829;28;20025;-77
2022/11/01 06:33:03;;;;;;;14.80;1.80;;;;;;;-143.48;57.40;78258.06;5014911;28;20352;-77
2022/11/01 06:35:29;;;;;;;11.02;1.80;;;;;;;-143.48;57.83;78275.94;5014519;28;20038;-77
2022/11/01 06:37:54;;;;;;;11.93;1.80;;;;;;;-143.48;58.10;78273.94;5015926;28;20465;-77
2022/11/01 06:40:20;;;;;;;10.75;1.75;;;;;;;-143.48;57.56;78273.94;5016063;28;20033;-77
2022/11/01 06:42:45;;;;;;;15.77;2.38;;;;;;;-143.48;57.04;78262.03;5014851;28;20365;-77
2022/11/01 06:45:11;;;;;;;16.20;2.10;;;;;;;-143.48;56.75;78262.03;5016189;28;20101;-77
2022/11/01 06:47:36;;;;;;;8.80;1.42;;;;;;;-143.48;56.51;78287.81;5015753;28;20030;-77
2022/11/01 06:50:02;;;;;;;16.17;2.25;;;;;;;-143.48;56.90;78291.78;5015848;28;20054;-78
2022/11/01 06:52:27;;;;;;;18.40;2.30;;;;;;;-143.48;56.70;78297.75;5014484;28;20041;-78
2022/11/01 06:54:53;;;;;;;17.10;2.28;;;;;;;-143.48;57.00;78289.81;5015760;28;20025;-78
2022/11/01 06:57:18;;;;;;;13.13;2.00;;;;;;;-143.48;56.65;78305.66;5015051;28;20389;-77
2022/11/01 06:59:43;;;;;;;8.70;1.85;;;;;;;-143.48;56.64;78297.75;5013906;28;20477;-78
2022/11/01 07:02:09;;;;;;;14.43;1.90;;;;;;;-143.48;56.65;78307.66;5015110;28;20068;-76
2022/11/01 07:04:35;;;;;;;17.20;2.35;;;;;;;-143.48;56.59;78307.66;5014942;28;20033;-76
2022/11/01 07:07:01;;;;;;;20.95;2.85;;;;;;;-143.48;56.23;78305.66;5013691;28;20026;-77
2022/11/01 07:09:26;;;;;;;11.98;2.92;;;;;;;-143.48;56.37;78299.72;5015257;28;20477;-78
2022/11/01 07:11:51;;;;;;;12.38;1.92;;;;;;;-143.48;56.82;78299.72;5015387;28;20075;-77
2022/11/01 07:14:17;;;;;;;12.45;2.13;;;;;;;-143.48;56.73;78301.72;5015405;28;20492;-77
2022/11/01 07:16:42;;;;;;;14.68;2.10;;;;;;;-143.48;56.14;78309.63;5013895;28;20033;-78
2022/11/01 07:19:07;;;;;;;16.65;2.65;;;;;;;-143.48;56.19;78307.66;5015025;28;20056;-78
2022/11/01 07:21:33;;;;;;;14.10;2.03;;;;;;;-143.48;56.33;78311.63;5014094;28;20034;-77
2022/11/01 07:23:58;;;;;;;13.10;2.10;;;;;;;-143.48;56.73;78307.66;5013325;28;20032;-78
2022/11/01 07:26:23;;;;;;;20.70;2.38;;;;;;;-143.48;56.81;78313.59;5015220;28;20018;-77
2022/11/01 07:28:49;;;;;;;13.07;2.15;;;;;;;-143.48;56.35;78311.63;5013927;28;20080;-77
2022/11/01 07:31:14;;;;;;;17.38;2.47;;;;;;;-143.48;56.57;78293.78;5014947;28;20057;-77
2022/11/01 07:33:39;;;;;;;13.88;2.40;;;;;;;-143.48;56.49;78327.50;5030382;28;20036;-78
2022/11/01 07:36:05;;;;;;;16.17;2.05;;;;;;;-143.48;55.81;78279.88;5014587;28;20036;-77
2022/11/01 07:38:34;;;;;;;22.20;2.75;;;;;;;-143.48;52.19;78109.34;5012897;28;20026;-79
2022/11/01 07:41:05;;;;;;;9.77;2.05;;;;;;;-143.48;48.82;77958.63;4997509;28;20029;-72
2022/11/01 07:43:33;;;;;;;11.93;2.40;;;;;;;-143.48;48.24;77988.38;5017944;28;20038;-81
2022/11/01 07:45:59;;;;;;;19.75;2.90;;;;;;;-143.48;46.49;77889.22;5015008;28;20022;-77
2022/11/01 07:48:24;;;;;;;17.73;2.65;;;;;;;-143.48;46.65;77871.38;5013260;28;20026;-78
2022/11/01 07:50:54;;;;;;;14.43;2.45;;;;;;;-143.48;45.15;77782.16;5013497;28;20120;-77
2022/11/01 07:53:20;;;;;;;17.60;2.50;;;;;;;-143.48;45.07;77803.97;5015209;28;20071;-78
2022/11/01 07:55:46;;;;;;;15.95;2.63;;;;;;;-143.48;47.84;78000.28;5015175;28;20528;-79
2022/11/01 07:58:12;;;;;;;15.13;2.58;;;;;;;-143.48;48.28;77954.66;5013436;28;20029;-78
2022/11/01 08:00:38;;;;;;;15.80;2.25;;;;;;;-143.48;48.71;78004.25;5013645;28;20037;-78
2022/11/01 08:03:06;;;;;;;13.68;2.22;;;;;;;-143.48;49.63;78047.88;5013323;28;20465;-78
2022/11/01 08:05:32;;;;;;;20.35;2.55;;;;;;;-143.48;52.51;78198.59;5014538;28;20101;-78
2022/11/01 08:07:58;;;;;;;12.07;2.58;;;;;;;-143.48;53.44;78202.56;5014609;28;20151;-75
2022/11/01 08:10:24;;;;;;;18.67;2.65;;;;;;;-143.48;53.20;78204.53;5014369;28;20465;-75
2022/11/01 08:12:50;;;;;;;18.60;2.75;;;;;;;-143.48;54.28;78240.22;5014093;28;20058;-77
2022/11/01 08:15:15;;;;;;;14.75;2.35;;;;;;;-143.48;55.34;78273.94;5012832;28;20120;-76
2022/11/01 08:17:40;;;;;;;16.08;2.40;;;;;;;-143.48;55.83;78281.88;5029557;28;20034;-76
2022/11/01 08:20:07;;;;;;;15.10;2.72;;;;;;;-143.48;55.65;78283.84;5013309;28;20025;-77
2022/11/01 08:22:32;;;;;;;22.60;2.83;;;;;;;-143.48;55.80;78281.88;5013706;28;20461;-76
2022/11/01 08:24:58;;;;;;;23.75;2.83;;;;;;;-143.48;55.98;78293.78;5013093;28;20037;-76
2022/11/01 08:27:24;;;;;;;15.50;2.53;;;;;;;-143.48;56.34;78285.84;5014438;28;20025;-75
2022/11/01 08:29:49;;;;;;;13.65;2.08;;;;;;;-143.48;56.13;78301.72;5014728;28;20037;-75
2022/11/01 08:32:18;;;;;;;19.50;2.05;;;;;;;-143.48;56.32;78287.81;5012836;28;20469;-75
2022/11/01 08:34:44;;;;;;;16.05;2.35;;;;;;;-143.48;56.26;78277.91;5012127;28;20030;-75
2022/11/01 08:37:09;;;;;;;17.80;2.22;;;;;;;-143.48;56.65;78301.72;5013949;28;20084;-75
2022/11/01 08:39:35;;;;;;;18.52;2.60;;;;;;;-143.48;56.31;78273.94;5014287;28;20065;-75
2022/11/01 08:42:00;;;;;;;17.77;2.83;;;;;;;-143.48;56.83;78297.75;5013183;28;20388;-76
2022/11/01 08:44:25;;;;;;;12.40;2.10;;;;;;;-143.48;56.69;78289.81;5012612;28;20036;-75
2022/11/01 08:46:53;;;;;;;25.80;2.83;;;;;;;-143.48;55.65;78252.13;5012288;28;20026;-76
2022/11/01 08:49:18;;;;;;;18.48;2.17;;;;;;;-143.48;54.84;78218.41;5014135;28;20054;-76
2022/11/01 08:51:43;;;;;;;14.15;2.40;;;;;;;-143.48;50.20;77992.34;5013058;28;20030;-76
2022/11/01 08:54:09;;;;;;;17.33;2.63;;;;;;;-143.48;43.92;77641.38;5027924;28;20043;-76
2022/11/01 08:56:35;;;;;;;17.38;2.40;;;;;;;-143.48;41.94;77569.97;5013344;28;20048;-76
2022/11/01 08:59:00;;;;;;;14.82;2.55;;;;;;;-143.48;43.33;77702.84;5011708;28;20077;-76
2022/11/01 09:01:26;;;;;;;20.58;2.50;;;;;;;-143.48;42.86;77683.00;5011725;28;20018;-77
2022/11/01 09:03:56;;;;;;;13.40;2.60;;;;;;;-143.48;40.89;77538.25;5010342;28;20374;-76
2022/11/01 09:06:23;;;;;;;15.68;2.47;;;;;;;-143.48;43.66;77809.91;5010736;28;20030;-76
2022/11/01 09:08:49;;;;;;;17.00;2.83;;;;;;;-143.48;48.33;77984.41;5028406;28;20369;-75
2022/11/01 09:11:14;;;;;;;14.35;2.70;;;;;;;-143.48;46.12;77875.34;5012032;28;20022;-76
2022/11/01 09:13:39;;;;;;;15.68;2.53;;;;;;;-143.48;41.63;77597.75;5013661;28;20026;-76
2022/11/01 09:16:06;;;;;;;19.13;2.50;;;;;;;-143.48;41.67;77645.31;5011931;28;20030;-76
2022/11/01 09:18:31;;;;;;;16.08;2.45;;;;;;;-143.48;39.67;77454.97;5013304;28;20030;-76
2022/11/01 09:20:58;;;;;;;12.80;2.90;;;;;;;-143.48;41.55;77720.69;5013409;28;20041;-76
2022/11/01 09:23:23;;;;;;;21.23;2.90;;;;;;;-143.48;39.91;77520.41;5028362;28;20388;-76
2022/11/01 09:25:48;;;;;;;16.40;2.60;;;;;;;-143.48;39.36;77498.59;5012060;28;20022;-76
2022/11/01 09:28:14;;;;;;;15.13;2.53;;;;;;;-143.48;39.17;77492.66;5013164;28;20084;-76
2022/11/01 09:30:39;;;;;;;16.75;2.45;;;;;;;-143.48;44.05;77861.47;5028158;28;20026;-76
2022/11/01 09:33:06;;;;;;;12.25;2.33;;;;;;;-143.48;51.28;78182.72;5028390;28;20026;-76
2022/11/01 09:35:32;;;;;;;12.50;2.10;;;;;;;-143.48;53.14;78242.22;5013218;28;20164;-76
2022/11/01 09:37:58;;;;;;;10.02;2.40;;;;;;;-143.48;47.15;77889.22;5011848;28;20041;-76
2022/11/01 09:40:26;;;;;;;17.08;2.35;;;;;;;-143.48;50.09;78085.53;5013186;28;20421;-76
2022/11/01 09:42:52;;;;;;;15.82;2.40;;;;;;;-143.48;47.16;77982.44;5012140;28;20120;-76
2022/11/01 09:45:21;;;;;;;10.52;2.03;;;;;;;-143.48;48.71;78069.69;5028549;28;20017;-76
2022/11/01 09:47:51;;;;;;;9.68;2.50;;;;;;;-143.48;43.19;77704.81;5016108;28;20397;-76
2022/11/01 09:50:38;;;;;;;17.85;3.03;;;;;;;-143.48;43.70;77742.50;5015720;28;20082;-76
2022/11/01 09:53:08;;;;;;;14.02;2.35;;;;;;;-143.48;45.10;77867.41;5016446;28;20036;-76
2022/11/01 09:55:36;;;;;;;20.25;2.75;;;;;;;-143.48;43.83;77756.38;5016611;28;20424;-76
2022/11/01 09:58:22;;;;;;;14.90;2.80;;;;;;;-143.48;42.41;77573.94;5015480;28;20064;-76
2022/11/01 10:01:05;;;;;;;18.00;3.25;;;;;;;-143.48;42.02;77619.56;5015834;28;20034;-76
2022/11/01 10:03:49;;;;;;;;;;;;;;;-143.48;37.56;77328.09;5016880;28;20026;-76
2022/11/01 10:06:43;;;;;;;13.57;2.72;;;;;;;-143.48;40.58;77629.47;5016728;28;19949;-76
2022/11/01 10:09:18;;;;;;;13.13;2.60;;;;;;;-143.48;41.76;77619.56;5015381;28;20018;-76
2022/11/01 10:11:52;;;;;;;14.45;2.63;;;;;;;-143.48;39.09;77421.28;5016649;28;20064;-76
2022/11/01 10:14:30;;;;;;;13.77;2.67;;;;;;;-143.48;37.57;77232.91;5015066;28;20037;-76
2022/11/01 10:17:01;;;;;;;15.35;2.70;;;;;;;-143.48;41.20;77675.06;5015273;28;20022;-76
2022/11/01 10:19:32;;;;;;;19.48;2.95;;;;;;;-143.48;37.11;77318.16;5014967;28;20030;-77
2022/11/01 10:22:03;;;;;;;15.93;2.80;;;;;;;-143.48;35.99;77191.28;5016256;28;20036;-76
2022/11/01 10:24:44;;;;;;;13.68;3.03;;;;;;;-143.48;36.21;77246.78;5014827;28;20030;-76
2022/11/01 10:27:23;;;;;;;11.00;2.45;;;;;;;-143.48;37.12;77308.25;5015957;28;20057;-78
2022/11/01 10:29:57;;;;;;;12.45;2.92;;;;;;;-143.48;37.16;77379.63;5014840;28;20041;-76
2022/11/01 10:32:42;;;;;;;14.73;2.63;;;;;;;-143.48;38.29;77456.97;5016131;28;20058;-77
2022/11/01 10:35:19;;;;;;;16.38;3.33;;;;;;;-143.48;38.80;77500.59;5013715;28;20033;-83
2022/11/01 10:37:50;;;;;;;16.08;2.85;;;;;;;-143.48;37.37;77385.59;5029859;28;20582;-83
2022/11/01 10:40:23;;;;;;;9.48;2.30;;;;;;;-143.48;37.80;77429.19;5016118;28;20033;-84
2022/11/01 10:42:48;;;;;;;;;;;;;;;-143.48;37.96;77417.31;5031038;28;20507;-83
2022/11/01 10:45:16;;;;;;;14.90;2.53;;;;;;;-143.48;37.28;77332.03;5015954;28;19914;-84
2022/11/01 10:47:44;;;;;;;14.60;3.10;;;;;;;-143.48;36.43;77276.53;5015861;28;20025;-83
2022/11/01 10:50:21;;;;;;;20.98;2.95;;;;;;;-143.48;36.60;77314.19;5014979;28;20056;-84
2022/11/01 10:53:00;;;;;;;13.93;2.65;;;;;;;-143.48;39.07;77556.09;5014076;28;20022;-82
2022/11/01 10:55:38;;;;;;;12.77;2.28;;;;;;;-143.48;38.07;77439.13;5014505;28;20064;-83
2022/11/01 10:58:13;;;;;;;16.55;2.50;;;;;;;-143.48;36.74;77272.56;5014479;28;20036;-83
2022/11/01 11:00:41;;;;;;;13.65;2.75;;;;;;;-143.48;37.56;77405.41;5013703;28;20026;-83
2022/11/01 11:03:23;;;;;;;12.40;2.58;;;;;;;-143.48;38.81;77508.50;5016261;28;20032;-82
2022/11/01 11:05:50;;;;;;;11.93;2.47;;;;;;;-143.48;39.03;77516.44;5014475;28;20018;-82
2022/11/01 11:08:18;;;;;;;10.68;2.45;;;;;;;-143.48;39.22;77484.72;5014336;28;20030;-83
2022/11/01 11:10:44;;;;;;;11.75;2.30;;;;;;;-143.48;39.00;77506.53;5014203;28;20017;-82
2022/11/01 11:13:13;;;;;;;14.32;2.90;;;;;;;-143.48;39.45;77550.16;5030714;28;20033;-83
2022/11/01 11:15:45;;;;;;;12.98;2.50;;;;;;;-143.48;39.17;77540.25;5015984;28;20036;-83
2022/11/01 11:18:28;;;;;;;15.52;3.20;;;;;;;-143.48;38.84;77472.81;5014218;28;20028;-82
2022/11/01 11:20:55;;;;;;;;;;;;;;;-143.48;38.14;77409.38;5015754;28;20030;-82
2022/11/01 11:23:22;;;;;;;10.98;2.22;;;;;;;-143.48;38.80;77478.78;5015586;28;20076;-83